Time;durP1;ratioP1;P1;durP2;ratioP2;P2;SDS_P1;SDS_P2;PMS_P1;PMS_P2;Temp;Humidity;BMP_temperature;BMP_pressure;BME280_temperature;BME280_humidity;BME280_pressure;Samples;Min_cycle;Max_cycle;Signal;HPM_P1;HPM_P2
2023/08/05 00:00:07;;;;;;;4.70;4.30;;;;;;;;;;6066794;29;20490;-73
2023/08/05 00:03:11;;;;;;;3.90;3.80;;;;;;;;;;6058946;29;20465;-73
2023/08/05 00:06:15;;;;;;;4.28;3.88;;;;;;;;;;6048448;29;20486;-73
2023/08/05 00:09:20;;;;;;;4.25;3.90;;;;;;;;;;6047655;29;20497;-74
2023/08/05 00:12:25;;;;;;;4.23;3.90;;;;;;;;;;6048188;29;20526;-74
2023/08/05 00:15:29;;;;;;;4.20;4.10;;;;;;;;;;6046637;29;20490;-73
2023/08/05 00:18:33;;;;;;;4.13;3.85;;;;;;;;;;6047176;29;20596;-73
2023/08/05 00:21:37;;;;;;;4.07;3.80;;;;;;;;;;6047566;29;20485;-73
2023/08/05 00:24:41;;;;;;;3.90;3.70;;;;;;;;;;6047387;29;20481;-73
2023/08/05 00:27:46;;;;;;;4.07;3.87;;;;;;;;;;6046853;29;20739;-73
2023/08/05 00:30:50;;;;;;;4.20;4.00;;;;;;;;;;6047632;29;20461;-73
2023/08/05 00:33:54;;;;;;;4.13;3.90;;;;;;;;;;6046145;29;20470;-73
2023/08/05 00:36:57;;;;;;;3.92;3.78;;;;;;;;;;6046291;29;20470;-73
2023/08/05 00:40:02;;;;;;;3.90;3.80;;;;;;;;;;6047185;29;20497;-73
2023/08/05 00:43:07;;;;;;;4.30;4.00;;;;;;;;;;6046607;29;20634;-73
2023/08/05 00:46:11;;;;;;;4.90;4.40;;;;;;;;;;6047526;29;20477;-73
2023/08/05 00:49:14;;;;;;;4.13;4.03;;;;;;;;;;6060824;29;20766;-73
2023/08/05 00:52:20;;;;;;;4.22;4.13;;;;;;;;;;6061440;29;20481;-73
2023/08/05 00:55:23;;;;;;;4.47;4.20;;;;;;;;;;6047021;29;20487;-73
2023/08/05 00:58:31;;;;;;;4.90;4.60;;;;;;;;;;6045818;29;20477;-73
2023/08/05 01:01:35;;;;;;;4.90;4.70;;;;;;;;;;6057916;23;20502;-83
2023/08/05 01:04:39;;;;;;;4.50;4.13;;;;;;;;;;6056832;29;20489;-84
2023/08/05 01:07:43;;;;;;;6.00;5.50;;;;;;;;;;6060662;29;20500;-84
2023/08/05 01:10:47;;;;;;;6.45;5.68;;;;;;;;;;6063755;29;20806;-85
2023/08/05 01:13:52;;;;;;;8.45;6.00;;;;;;;;;;6046750;29;20482;-85
2023/08/05 01:16:56;;;;;;;6.20;5.63;;;;;;;;;;6045571;29;20486;-84
2023/08/05 01:20:01;;;;;;;4.80;4.50;;;;;;;;;;6057546;29;20484;-84
2023/08/05 01:23:08;;;;;;;4.50;4.20;;;;;;;;;;6067817;29;20469;-84
2023/08/05 01:26:13;;;;;;;4.28;4.00;;;;;;;;;;6069708;29;20496;-84
2023/08/05 01:29:17;;;;;;;4.03;3.83;;;;;;;;;;6068957;29;20488;-84
2023/08/05 01:32:21;;;;;;;4.28;3.88;;;;;;;;;;6069574;29;20488;-84
2023/08/05 01:35:25;;;;;;;3.90;3.70;;;;;;;;;;6067662;29;20673;-84
2023/08/05 01:38:29;;;;;;;4.00;3.80;;;;;;;;;;6046851;29;20482;-84
2023/08/05 01:41:36;;;;;;;4.38;4.05;;;;;;;;;;6046578;29;20485;-84
2023/08/05 01:44:39;;;;;;;4.28;3.97;;;;;;;;;;6046077;29;20502;-84
2023/08/05 01:47:43;;;;;;;4.18;4.07;;;;;;;;;;6046636;29;20482;-83
2023/08/05 01:50:47;;;;;;;4.28;4.07;;;;;;;;;;6046871;29;20683;-83
2023/08/05 01:53:51;;;;;;;3.90;3.70;;;;;;;;;;6045893;29;20513;-83
2023/08/05 01:56:56;;;;;;;4.13;3.92;;;;;;;;;;6048606;29;20798;-83
2023/08/05 02:00:00;;;;;;;4.20;3.90;;;;;;;;;;6048806;29;20482;-83
2023/08/05 02:03:16;;;;;;;3.75;3.60;;;;;;;;;;6051221;29;20489;-83
2023/08/05 02:06:20;;;;;;;3.83;3.63;;;;;;;;;;6046035;29;20494;-83
2023/08/05 02:09:24;;;;;;;3.95;3.65;;;;;;;;;;6044330;29;20488;-83
2023/08/05 02:12:29;;;;;;;3.50;3.40;;;;;;;;;;6065625;29;20856;-83
2023/08/05 02:15:33;;;;;;;3.80;3.60;;;;;;;;;;6067000;29;20488;-83
2023/08/05 02:18:38;;;;;;;4.30;3.85;;;;;;;;;;6067383;29;20772;-83
2023/08/05 02:21:41;;;;;;;3.83;3.53;;;;;;;;;;6070071;29;20467;-83
2023/08/05 02:24:45;;;;;;;3.57;3.50;;;;;;;;;;6070977;29;20501;-83
2023/08/05 02:27:50;;;;;;;3.90;3.80;;;;;;;;;;6065881;29;20469;-83
2023/08/05 02:30:54;;;;;;;4.00;3.70;;;;;;;;;;6068115;29;20486;-83
2023/08/05 02:33:58;;;;;;;4.20;3.92;;;;;;;;;;6067947;29;20471;-82
2023/08/05 02:37:01;;;;;;;3.90;3.67;;;;;;;;;;6068437;29;20475;-83
2023/08/05 02:40:06;;;;;;;3.90;3.60;;;;;;;;;;6066552;29;20472;-83
2023/08/05 02:43:11;;;;;;;3.83;3.53;;;;;;;;;;6067691;29;20492;-83
2023/08/05 02:46:15;;;;;;;3.90;3.50;;;;;;;;;;6068076;29;20479;-82
2023/08/05 02:49:19;;;;;;;4.00;3.70;;;;;;;;;;6067387;29;20480;-82
2023/08/05 02:52:23;;;;;;;3.95;3.65;;;;;;;;;;6067572;29;20823;-83
2023/08/05 02:55:28;;;;;;;4.27;4.07;;;;;;;;;;6067455;29;20789;-83
2023/08/05 02:58:33;;;;;;;4.38;4.10;;;;;;;;;;6070500;29;20484;-83
2023/08/05 03:01:37;;;;;;;3.97;3.88;;;;;;;;;;6055150;29;20508;-82
2023/08/05 03:04:41;;;;;;;3.65;3.65;;;;;;;;;;6058774;29;20644;-83
2023/08/05 03:07:45;;;;;;;4.10;3.90;;;;;;;;;;6048317;29;20465;-82
2023/08/05 03:10:57;;;;;;;2.97;2.88;;;;;;;;;;6052917;29;20800;-82
2023/08/05 03:14:03;;;;;;;3.60;3.50;;;;;;;;;;6066587;29;20472;-82
2023/08/05 03:17:07;;;;;;;4.25;3.95;;;;;;;;;;6067442;29;20488;-83
2023/08/05 03:20:23;;;;;;;3.95;3.65;;;;;;;;;;6054089;29;20571;-82
2023/08/05 03:23:31;;;;;;;3.70;3.60;;;;;;;;;;6046352;29;20490;-82
2023/08/05 03:26:34;;;;;;;3.70;3.60;;;;;;;;;;6049485;29;20494;-83
2023/08/05 03:29:43;;;;;;;3.85;3.58;;;;;;;;;;6045342;29;20485;-83
2023/08/05 03:32:48;;;;;;;4.93;3.80;;;;;;;;;;6042703;29;20470;-83
2023/08/05 03:35:53;;;;;;;3.97;3.73;;;;;;;;;;6032010;29;20487;-82
2023/08/05 03:39:00;;;;;;;4.13;3.93;;;;;;;;;;6068792;29;20480;-82
2023/08/05 03:42:04;;;;;;;4.25;3.95;;;;;;;;;;6070313;29;20491;-83
2023/08/05 03:45:11;;;;;;;4.47;4.17;;;;;;;;;;6070386;29;20491;-83
2023/08/05 03:48:15;;;;;;;4.35;3.97;;;;;;;;;;6070245;29;20499;-82
2023/08/05 03:51:19;;;;;;;3.92;3.92;;;;;;;;;;6070523;29;20500;-82
2023/08/05 03:54:23;;;;;;;5.55;5.25;;;;;;;;;;6071138;29;20472;-82
2023/08/05 03:57:27;;;;;;;5.80;5.43;;;;;;;;;;6069898;29;20520;-84
2023/08/05 04:00:34;;;;;;;5.93;5.40;;;;;;;;;;6069938;29;20590;-84
2023/08/05 04:03:38;;;;;;;6.13;5.80;;;;;;;;;;6061699;29;20481;-84
2023/08/05 04:06:42;;;;;;;5.47;5.28;;;;;;;;;;6048131;29;20482;-84
2023/08/05 04:09:46;;;;;;;6.07;5.77;;;;;;;;;;6047737;29;20563;-84
2023/08/05 04:12:50;;;;;;;5.82;5.63;;;;;;;;;;6047669;29;20470;-84
2023/08/05 04:15:58;;;;;;;5.60;5.40;;;;;;;;;;6062495;29;20482;-84
2023/08/05 04:19:03;;;;;;;5.63;5.43;;;;;;;;;;6047786;29;20490;-84
2023/08/05 04:22:07;;;;;;;5.68;5.50;;;;;;;;;;6062732;29;20781;-84
2023/08/05 04:25:11;;;;;;;5.20;5.00;;;;;;;;;;6047606;29;20786;-84
2023/08/05 04:28:15;;;;;;;4.85;4.75;;;;;;;;;;6047364;29;20474;-84
2023/08/05 04:31:20;;;;;;;4.33;4.23;;;;;;;;;;6048040;29;20481;-83
2023/08/05 04:34:24;;;;;;;4.30;4.20;;;;;;;;;;6048022;29;20811;-84
2023/08/05 04:37:28;;;;;;;3.90;3.80;;;;;;;;;;6047582;29;20489;-83
2023/08/05 04:40:32;;;;;;;3.95;3.95;;;;;;;;;;6048682;29;20485;-84
2023/08/05 04:43:36;;;;;;;4.03;3.92;;;;;;;;;;6048106;29;20473;-84
2023/08/05 04:46:41;;;;;;;4.15;4.05;;;;;;;;;;6050613;29;20786;-84
2023/08/05 04:49:45;;;;;;;4.30;4.20;;;;;;;;;;6050830;29;20478;-84
2023/08/05 04:52:49;;;;;;;4.22;4.13;;;;;;;;;;6049412;29;20465;-84
2023/08/05 04:55:53;;;;;;;4.90;4.70;;;;;;;;;;6048441;29;20490;-84
2023/08/05 04:58:57;;;;;;;4.70;4.60;;;;;;;;;;6046907;29;20489;-84
2023/08/05 05:02:02;;;;;;;4.30;4.20;;;;;;;;;;6051112;29;20500;-84
2023/08/05 05:05:07;;;;;;;4.30;4.22;;;;;;;;;;6069583;29;20572;-84
2023/08/05 05:08:11;;;;;;;4.10;4.10;;;;;;;;;;6069453;29;20472;-84
2023/08/05 05:11:18;;;;;;;4.60;4.45;;;;;;;;;;6054291;29;20482;-83
2023/08/05 05:14:22;;;;;;;4.93;4.60;;;;;;;;;;6046451;29;20562;-84
2023/08/05 05:17:33;;;;;;;4.40;4.30;;;;;;;;;;6046411;29;20486;-84
2023/08/05 05:20:37;;;;;;;4.22;4.13;;;;;;;;;;6047519;29;20477;-84
2023/08/05 05:23:41;;;;;;;3.90;3.90;;;;;;;;;;6046165;29;20490;-84
2023/08/05 05:26:45;;;;;;;4.10;4.03;;;;;;;;;;6046948;29;20549;-83
2023/08/05 05:29:49;;;;;;;4.20;4.10;;;;;;;;;;6046105;29;20477;-84
2023/08/05 05:32:54;;;;;;;4.07;4.00;;;;;;;;;;6046397;29;20477;-83
2023/08/05 05:35:59;;;;;;;4.28;4.18;;;;;;;;;;6046863;29;20490;-83
2023/08/05 05:39:02;;;;;;;4.25;4.05;;;;;;;;;;6045513;29;20661;-84
2023/08/05 05:42:07;;;;;;;4.43;4.32;;;;;;;;;;6046509;29;20670;-83
2023/08/05 05:45:11;;;;;;;4.25;4.05;;;;;;;;;;6045229;29;20665;-85
2023/08/05 05:48:16;;;;;;;4.57;4.30;;;;;;;;;;6047056;29;20469;-85
2023/08/05 05:51:20;;;;;;;4.93;4.75;;;;;;;;;;6047564;29;20486;-85
2023/08/05 05:54:24;;;;;;;4.68;4.47;;;;;;;;;;6046493;29;20478;-85
2023/08/05 05:57:27;;;;;;;5.20;5.00;;;;;;;;;;6046069;29;20485;-83
2023/08/05 06:00:31;;;;;;;4.80;4.60;;;;;;;;;;6047967;29;20467;-84
2023/08/05 06:03:38;;;;;;;5.03;4.70;;;;;;;;;;6047389;29;20486;-84
2023/08/05 06:06:42;;;;;;;4.80;4.40;;;;;;;;;;6049323;29;20474;-84
2023/08/05 06:09:46;;;;;;;4.10;3.90;;;;;;;;;;6054399;29;20568;-85
2023/08/05 06:12:50;;;;;;;5.00;4.57;;;;;;;;;;6074836;29;20476;-83
2023/08/05 06:15:54;;;;;;;7.22;4.47;;;;;;;;;;6075200;29;20642;-84
2023/08/05 06:18:59;;;;;;;4.90;4.50;;;;;;;;;;6073101;29;20472;-83
2023/08/05 06:22:03;;;;;;;5.07;4.78;;;;;;;;;;6071411;29;20475;-83
2023/08/05 06:25:08;;;;;;;5.05;4.65;;;;;;;;;;6070040;29;20471;-86
2023/08/05 06:28:11;;;;;;;4.50;4.20;;;;;;;;;;6069486;29;20476;-85
2023/08/05 06:31:15;;;;;;;4.22;3.92;;;;;;;;;;6070424;29;20480;-87
2023/08/05 06:34:22;;;;;;;6.00;4.50;;;;;;;;;;6069745;29;20468;-84
2023/08/05 06:37:25;;;;;;;4.70;4.40;;;;;;;;;;6069324;29;20523;-84
2023/08/05 06:40:29;;;;;;;5.30;4.70;;;;;;;;;;6069555;29;20476;-84
2023/08/05 06:43:33;;;;;;;6.93;4.68;;;;;;;;;;6068949;29;20483;-84
2023/08/05 06:46:39;;;;;;;5.20;4.57;;;;;;;;;;6068953;29;20475;-84
2023/08/05 06:49:44;;;;;;;4.60;4.40;;;;;;;;;;6067799;29;20479;-84
2023/08/05 06:52:48;;;;;;;4.90;4.40;;;;;;;;;;6067938;29;20471;-84
2023/08/05 06:56:01;;;;;;;5.80;4.47;;;;;;;;;;6068254;29;20577;-84
2023/08/05 06:59:05;;;;;;;4.78;4.38;;;;;;;;;;6067846;29;20476;-84
2023/08/05 07:02:11;;;;;;;4.70;4.30;;;;;;;;;;6067805;29;20676;-84
2023/08/05 07:05:17;;;;;;;5.18;4.68;;;;;;;;;;6068030;29;20483;-84
2023/08/05 07:08:22;;;;;;;6.63;4.90;;;;;;;;;;6022943;29;20919;-84
2023/08/05 07:11:26;;;;;;;4.82;4.63;;;;;;;;;;6053464;29;20484;-84
2023/08/05 07:14:31;;;;;;;5.30;5.00;;;;;;;;;;6070819;29;20676;-84
2023/08/05 07:17:35;;;;;;;5.60;4.60;;;;;;;;;;6072195;29;20500;-84
2023/08/05 07:20:42;;;;;;;4.72;4.30;;;;;;;;;;6070833;29;20491;-83
2023/08/05 07:23:46;;;;;;;5.30;4.82;;;;;;;;;;6072083;29;20775;-83
2023/08/05 07:26:49;;;;;;;6.53;5.25;;;;;;;;;;6072605;29;20476;-82
2023/08/05 07:29:53;;;;;;;5.38;4.85;;;;;;;;;;6071685;29;20776;-83
2023/08/05 07:32:57;;;;;;;7.05;4.88;;;;;;;;;;6071666;29;20485;-83
2023/08/05 07:36:09;;;;;;;4.93;4.63;;;;;;;;;;6072522;29;20494;-83
2023/08/05 07:39:13;;;;;;;9.00;4.63;;;;;;;;;;6072828;29;20479;-86
2023/08/05 07:42:19;;;;;;;6.32;4.50;;;;;;;;;;6080390;29;20484;-87
2023/08/05 07:45:22;;;;;;;7.50;4.30;;;;;;;;;;6076018;29;20483;-85
2023/08/05 07:48:27;;;;;;;4.50;4.10;;;;;;;;;;6071178;29;20473;-86
2023/08/05 07:51:32;;;;;;;4.22;3.92;;;;;;;;;;6071085;29;20471;-85
2023/08/05 07:54:36;;;;;;;6.47;4.40;;;;;;;;;;6071065;29;20684;-85
2023/08/05 07:57:40;;;;;;;6.47;4.40;;;;;;;;;;6070997;29;20484;-85
2023/08/05 08:00:44;;;;;;;6.70;3.95;;;;;;;;;;6071455;29;20485;-85
2023/08/05 08:03:48;;;;;;;4.43;3.80;;;;;;;;;;6070825;29;20476;-83
2023/08/05 08:06:53;;;;;;;5.03;4.38;;;;;;;;;;6071645;29;20472;-83
2023/08/05 08:09:58;;;;;;;6.93;4.40;;;;;;;;;;6066698;29;20473;-84
2023/08/05 08:13:02;;;;;;;4.80;3.83;;;;;;;;;;6046638;29;20674;-84
2023/08/05 08:16:06;;;;;;;6.77;4.10;;;;;;;;;;6048546;29;20490;-85
2023/08/05 08:19:10;;;;;;;4.50;4.07;;;;;;;;;;6048053;29;20462;-86
2023/08/05 08:22:15;;;;;;;8.60;3.97;;;;;;;;;;6049702;29;20501;-86
2023/08/05 08:25:19;;;;;;;4.75;3.15;;;;;;;;;;6046100;29;20466;-84
2023/08/05 08:28:23;;;;;;;4.50;3.67;;;;;;;;;;6047702;29;20479;-84
2023/08/05 08:31:30;;;;;;;5.73;3.60;;;;;;;;;;6047995;29;20672;-83
2023/08/05 08:34:34;;;;;;;6.20;4.07;;;;;;;;;;6047300;29;20491;-84
2023/08/05 08:37:39;;;;;;;7.75;4.13;;;;;;;;;;6048114;29;20533;-85
2023/08/05 08:40:47;;;;;;;7.57;4.00;;;;;;;;;;6048132;29;20478;-84
2023/08/05 08:43:52;;;;;;;3.85;3.55;;;;;;;;;;6047450;29;20494;-84
2023/08/05 08:46:56;;;;;;;6.80;4.15;;;;;;;;;;6047637;29;20481;-83
2023/08/05 08:50:00;;;;;;;5.30;3.90;;;;;;;;;;6047214;29;20550;-81
2023/08/05 08:53:07;;;;;;;6.97;4.10;;;;;;;;;;6047235;29;20466;-82
2023/08/05 08:56:11;;;;;;;6.03;4.20;;;;;;;;;;6047714;29;20486;-84
2023/08/05 08:59:15;;;;;;;7.05;4.32;;;;;;;;;;6049037;29;20481;-84
2023/08/05 09:02:24;;;;;;;8.23;4.25;;;;;;;;;;6048977;29;20505;-80
2023/08/05 09:05:32;;;;;;;6.28;4.10;;;;;;;;;;6048793;29;20481;-87
2023/08/05 09:08:37;;;;;;;7.60;4.00;;;;;;;;;;6053749;29;20641;-86
2023/08/05 09:11:41;;;;;;;6.35;3.65;;;;;;;;;;6069692;29;20476;-86
2023/08/05 09:14:44;;;;;;;5.97;3.60;;;;;;;;;;6069990;29;20483;-85
2023/08/05 09:17:49;;;;;;;4.65;3.58;;;;;;;;;;6069767;29;20488;-90
2023/08/05 09:20:53;;;;;;;5.30;3.80;;;;;;;;;;6069999;29;20480;-79
2023/08/05 09:23:59;;;;;;;4.65;3.83;;;;;;;;;;6069192;29;20487;-77
2023/08/05 09:27:03;;;;;;;5.40;3.58;;;;;;;;;;6069874;29;20484;-78
2023/08/05 09:30:15;;;;;;;7.38;3.60;;;;;;;;;;6069393;29;20787;-79
2023/08/05 09:33:19;;;;;;;7.15;3.90;;;;;;;;;;6069284;29;20484;-78
2023/08/05 09:36:24;;;;;;;3.85;3.53;;;;;;;;;;6069332;29;20803;-78
2023/08/05 09:39:43;;;;;;;9.10;4.00;;;;;;;;;;6068178;29;20753;-83
2023/08/05 09:42:51;;;;;;;7.82;4.15;;;;;;;;;;6068457;29;20476;-80
2023/08/05 09:45:54;;;;;;;5.73;3.73;;;;;;;;;;6069457;29;20468;-80
2023/08/05 09:48:58;;;;;;;6.35;3.85;;;;;;;;;;6068993;29;20460;-80
2023/08/05 09:52:03;;;;;;;4.37;3.63;;;;;;;;;;6072861;29;20492;-81
2023/08/05 09:55:14;;;;;;;3.97;3.42;;;;;;;;;;6069359;29;20496;-81
2023/08/05 09:58:18;;;;;;;7.68;4.13;;;;;;;;;;6068955;29;20475;-81
2023/08/05 10:01:23;;;;;;;6.57;3.80;;;;;;;;;;6070034;29;20484;-81
2023/08/05 10:04:28;;;;;;;6.55;3.70;;;;;;;;;;6070429;29;20480;-81
2023/08/05 10:07:32;;;;;;;4.70;3.63;;;;;;;;;;6066598;29;20480;-80
2023/08/05 10:10:38;;;;;;;6.20;3.70;;;;;;;;;;6059606;29;20792;-79
2023/08/05 10:13:44;;;;;;;8.48;3.40;;;;;;;;;;6045220;29;20773;-80
2023/08/05 10:16:49;;;;;;;6.50;3.50;;;;;;;;;;6045916;29;20520;-80
2023/08/05 10:19:53;;;;;;;5.32;3.20;;;;;;;;;;6045521;29;20478;-80
2023/08/05 10:23:02;;;;;;;4.15;3.30;;;;;;;;;;6045340;29;20474;-82
2023/08/05 10:26:07;;;;;;;4.63;3.20;;;;;;;;;;6045586;29;20635;-80
2023/08/05 10:29:26;;;;;;;4.63;3.50;;;;;;;;;;6046770;29;20482;-80
2023/08/05 10:32:29;;;;;;;3.58;3.10;;;;;;;;;;6048842;29;20473;-81
2023/08/05 10:35:39;;;;;;;5.30;3.30;;;;;;;;;;6050064;29;20501;-81
2023/08/05 10:38:43;;;;;;;6.80;3.40;;;;;;;;;;6044923;29;20501;-80
2023/08/05 10:41:48;;;;;;;3.50;3.20;;;;;;;;;;6044238;29;20502;-80
2023/08/05 10:44:55;;;;;;;4.00;3.40;;;;;;;;;;6044743;29;20825;-82
2023/08/05 10:47:59;;;;;;;4.78;3.33;;;;;;;;;;6042294;29;20674;-81
2023/08/05 10:51:07;;;;;;;5.50;3.22;;;;;;;;;;6045103;29;20498;-80
2023/08/05 10:54:11;;;;;;;6.95;2.90;;;;;;;;;;6044448;29;20493;-81
2023/08/05 10:57:48;;;;;;;4.73;3.00;;;;;;;;;;6044844;29;20497;-79
2023/08/05 11:01:02;;;;;;;4.63;2.80;;;;;;;;;;6043740;29;20470;-80
2023/08/05 11:04:26;;;;;;;3.37;2.87;;;;;;;;;;6043930;29;20473;-81
2023/08/05 11:07:31;;;;;;;3.10;2.80;;;;;;;;;;6044210;29;20498;-80
2023/08/05 11:10:35;;;;;;;5.47;3.10;;;;;;;;;;6053540;29;20475;-80
2023/08/05 11:13:43;;;;;;;5.25;3.22;;;;;;;;;;6067088;29;20499;-81
2023/08/05 11:16:47;;;;;;;4.70;3.03;;;;;;;;;;6067829;29;20472;-81
2023/08/05 11:19:51;;;;;;;4.20;3.22;;;;;;;;;;6067347;29;20586;-81
2023/08/05 11:22:55;;;;;;;5.85;3.25;;;;;;;;;;6067252;29;20583;-81
2023/08/05 11:26:00;;;;;;;3.72;3.28;;;;;;;;;;6067519;29;20483;-81
2023/08/05 11:29:07;;;;;;;4.63;3.23;;;;;;;;;;6067297;29;20525;-80
2023/08/05 11:32:11;;;;;;;4.70;2.72;;;;;;;;;;6067606;29;20495;-81
2023/08/05 11:35:15;;;;;;;5.60;3.00;;;;;;;;;;6067218;29;20752;-81
2023/08/05 11:38:19;;;;;;;4.70;3.33;;;;;;;;;;6067089;29;20480;-81
2023/08/05 11:41:23;;;;;;;4.13;2.83;;;;;;;;;;6067687;29;20667;-80
2023/08/05 11:44:28;;;;;;;5.75;3.60;;;;;;;;;;6067066;29;20480;-79
2023/08/05 11:47:36;;;;;;;5.27;3.07;;;;;;;;;;6067022;29;20484;-80
2023/08/05 11:50:40;;;;;;;5.15;3.10;;;;;;;;;;6068170;29;20483;-81
2023/08/05 11:53:48;;;;;;;5.47;3.53;;;;;;;;;;6068816;29;20483;-80
2023/08/05 11:56:52;;;;;;;5.60;3.00;;;;;;;;;;6070709;29;20500;-78
2023/08/05 12:00:04;;;;;;;6.65;3.17;;;;;;;;;;6075052;29;20479;-78
2023/08/05 12:03:08;;;;;;;4.57;3.08;;;;;;;;;;6071950;29;20528;-80
2023/08/05 12:06:12;;;;;;;3.90;3.08;;;;;;;;;;6071552;29;20488;-81
2023/08/05 12:09:16;;;;;;;5.97;3.20;;;;;;;;;;6070739;29;20492;-79
2023/08/05 12:12:20;;;;;;;5.20;3.07;;;;;;;;;;6048475;29;20491;-80
2023/08/05 12:15:26;;;;;;;5.03;3.65;;;;;;;;;;6047127;29;20485;-79
2023/08/05 12:18:33;;;;;;;4.35;2.90;;;;;;;;;;6046472;29;20485;-79
2023/08/05 12:21:36;;;;;;;4.88;3.15;;;;;;;;;;6047461;29;20482;-79
2023/08/05 12:24:40;;;;;;;5.93;3.33;;;;;;;;;;6049740;29;20821;-80
2023/08/05 12:27:44;;;;;;;4.30;3.38;;;;;;;;;;6047343;29;20498;-80
2023/08/05 12:30:49;;;;;;;3.78;3.20;;;;;;;;;;6049338;29;20798;-80
2023/08/05 12:33:53;;;;;;;4.32;3.00;;;;;;;;;;6046930;29;20467;-81
2023/08/05 12:36:57;;;;;;;5.43;3.00;;;;;;;;;;6047447;29;20465;-81
2023/08/05 12:40:01;;;;;;;3.30;2.83;;;;;;;;;;6046993;29;20614;-81
2023/08/05 12:43:05;;;;;;;3.97;2.80;;;;;;;;;;6046778;29;20478;-81
2023/08/05 12:46:10;;;;;;;6.75;3.25;;;;;;;;;;6047501;29;20474;-81
2023/08/05 12:49:13;;;;;;;7.07;3.42;;;;;;;;;;6046993;29;20557;-81
2023/08/05 12:52:17;;;;;;;5.35;3.40;;;;;;;;;;6047319;29;20473;-80
2023/08/05 12:55:21;;;;;;;5.85;3.15;;;;;;;;;;6046818;29;20885;-81
2023/08/05 12:58:25;;;;;;;4.32;2.85;;;;;;;;;;6046709;29;20485;-80
2023/08/05 13:01:30;;;;;;;4.68;3.20;;;;;;;;;;6046281;29;20479;-81
2023/08/05 13:04:34;;;;;;;7.80;3.17;;;;;;;;;;6046423;29;20474;-81
2023/08/05 13:07:38;;;;;;;5.38;3.10;;;;;;;;;;6046868;29;20493;-80
2023/08/05 13:10:43;;;;;;;4.72;3.13;;;;;;;;;;6056776;29;20497;-80
2023/08/05 13:13:47;;;;;;;5.35;3.20;;;;;;;;;;6070439;29;20496;-81
2023/08/05 13:16:52;;;;;;;3.50;3.00;;;;;;;;;;6071340;29;20476;-80
2023/08/05 13:19:56;;;;;;;3.42;2.40;;;;;;;;;;6069576;29;20475;-80
2023/08/05 13:23:00;;;;;;;3.17;2.87;;;;;;;;;;6073862;29;20472;-80
2023/08/05 13:26:04;;;;;;;5.18;2.75;;;;;;;;;;6072181;29;20663;-80
2023/08/05 13:29:08;;;;;;;4.28;2.80;;;;;;;;;;6068188;29;20656;-80
2023/08/05 13:32:13;;;;;;;3.80;2.45;;;;;;;;;;6071957;29;20488;-81
2023/08/05 13:35:17;;;;;;;3.65;2.67;;;;;;;;;;6071442;29;20472;-81
2023/08/05 13:38:21;;;;;;;3.13;2.45;;;;;;;;;;6069196;29;20808;-81
2023/08/05 13:41:24;;;;;;;4.45;2.60;;;;;;;;;;6069379;29;20564;-81
2023/08/05 13:44:28;;;;;;;5.60;2.90;;;;;;;;;;6069124;29;20497;-81
2023/08/05 13:47:33;;;;;;;4.78;2.60;;;;;;;;;;6068842;29;20476;-80
2023/08/05 13:50:37;;;;;;;4.57;2.70;;;;;;;;;;6067950;29;20479;-80
2023/08/05 13:53:41;;;;;;;3.60;3.00;;;;;;;;;;6068517;29;20491;-80
2023/08/05 13:56:45;;;;;;;4.68;3.13;;;;;;;;;;6069183;29;20475;-80
2023/08/05 13:59:51;;;;;;;3.50;2.50;;;;;;;;;;6067309;29;20668;-80
2023/08/05 14:02:58;;;;;;;5.18;2.70;;;;;;;;;;6050478;29;20474;-79
2023/08/05 14:06:01;;;;;;;3.40;2.70;;;;;;;;;;6045795;29;20519;-79
2023/08/05 14:09:07;;;;;;;5.45;2.50;;;;;;;;;;6046608;29;20302;-79
2023/08/05 14:12:11;;;;;;;2.40;2.22;;;;;;;;;;6025460;29;20306;-80
2023/08/05 14:15:15;;;;;;;10.13;2.80;;;;;;;;;;6023495;29;20303;-80
2023/08/05 14:18:21;;;;;;;11.57;2.40;;;;;;;;;;6023708;29;20294;-80
2023/08/05 14:21:25;;;;;;;1.90;1.80;;;;;;;;;;6024547;29;20294;-80
2023/08/05 14:24:28;;;;;;;2.40;2.22;;;;;;;;;;6037160;29;20303;-78
2023/08/05 14:27:32;;;;;;;2.58;2.20;;;;;;;;;;6023640;29;20247;-80
2023/08/05 14:30:37;;;;;;;3.92;2.20;;;;;;;;;;6023834;29;20251;-80
2023/08/05 14:33:42;;;;;;;3.47;2.10;;;;;;;;;;6023987;29;20318;-80
2023/08/05 14:36:46;;;;;;;3.80;2.20;;;;;;;;;;6024427;29;22803;-80
2023/08/05 14:39:53;;;;;;;4.53;2.50;;;;;;;;;;6024682;29;20302;-82
2023/08/05 14:42:57;;;;;;;2.28;2.08;;;;;;;;;;6025718;29;20294;-81
2023/08/05 14:46:03;;;;;;;2.63;2.42;;;;;;;;;;6029628;29;20443;-81
2023/08/05 14:49:08;;;;;;;2.92;2.22;;;;;;;;;;6028201;29;20575;-81
2023/08/05 14:52:12;;;;;;;3.58;2.28;;;;;;;;;;6023479;29;20306;-81
2023/08/05 14:55:16;;;;;;;2.80;2.47;;;;;;;;;;6022992;29;20294;-80
2023/08/05 14:58:20;;;;;;;2.67;2.53;;;;;;;;;;6022576;29;20302;-80
2023/08/05 15:01:24;;;;;;;3.78;2.33;;;;;;;;;;6023315;29;20302;-81
2023/08/05 15:04:29;;;;;;;3.72;2.83;;;;;;;;;;6043863;29;20297;-80
2023/08/05 15:07:33;;;;;;;2.33;2.10;;;;;;;;;;6047062;29;20297;-80
2023/08/05 15:10:37;;;;;;;2.08;1.92;;;;;;;;;;6057660;29;20308;-80
2023/08/05 15:13:41;;;;;;;2.53;2.33;;;;;;;;;;6070745;29;20297;-80
2023/08/05 15:16:45;;;;;;;2.70;2.47;;;;;;;;;;6072120;29;20304;-80
2023/08/05 15:19:52;;;;;;;4.57;2.47;;;;;;;;;;6072097;29;20309;-80
2023/08/05 15:22:56;;;;;;;2.28;2.08;;;;;;;;;;6072516;29;20296;-80
2023/08/05 15:26:02;;;;;;;2.67;2.10;;;;;;;;;;6071112;29;20293;-80
2023/08/05 15:29:06;;;;;;;2.17;2.00;;;;;;;;;;6073186;29;20302;-80
2023/08/05 15:32:10;;;;;;;4.90;2.20;;;;;;;;;;6072519;29;20297;-80
2023/08/05 15:35:15;;;;;;;2.25;2.05;;;;;;;;;;6074654;29;20372;-80
2023/08/05 15:38:19;;;;;;;2.17;2.08;;;;;;;;;;6077279;29;20304;-80
2023/08/05 15:41:23;;;;;;;4.95;2.58;;;;;;;;;;6077758;29;20293;-81
2023/08/05 15:44:26;;;;;;;3.67;2.92;;;;;;;;;;6075929;29;20300;-80
2023/08/05 15:47:30;;;;;;;4.20;3.30;;;;;;;;;;6075853;29;20301;-80
2023/08/05 15:50:35;;;;;;;18.50;13.68;;;;;;;;;;6078402;29;20297;-80
2023/08/05 15:53:39;;;;;;;3.40;3.10;;;;;;;;;;6077357;29;20304;-80
2023/08/05 15:56:43;;;;;;;3.10;2.90;;;;;;;;;;6077555;29;20301;-81
2023/08/05 15:59:46;;;;;;;2.92;2.28;;;;;;;;;;6077029;29;20309;-82
2023/08/05 16:02:50;;;;;;;5.35;2.20;;;;;;;;;;6077075;29;20298;-83
2023/08/05 16:06:02;;;;;;;2.63;2.42;;;;;;;;;;6078505;29;20298;-81
2023/08/05 16:09:06;;;;;;;3.50;2.63;;;;;;;;;;6079418;29;20342;-82
2023/08/05 16:12:10;;;;;;;3.60;2.85;;;;;;;;;;6059012;29;20612;-82
2023/08/05 16:15:14;;;;;;;4.80;2.40;;;;;;;;;;6056770;29;20301;-81
2023/08/05 16:18:18;;;;;;;2.80;2.45;;;;;;;;;;6054685;29;20302;-82
2023/08/05 16:21:23;;;;;;;5.75;2.28;;;;;;;;;;6053908;29;20310;-81
2023/08/05 16:24:27;;;;;;;3.10;2.85;;;;;;;;;;6051419;29;20389;-82
2023/08/05 16:27:32;;;;;;;4.00;2.38;;;;;;;;;;6050424;29;20572;-82
2023/08/05 16:30:36;;;;;;;2.67;2.47;;;;;;;;;;6049491;29;20246;-79
2023/08/05 16:33:40;;;;;;;2.90;2.70;;;;;;;;;;6048734;29;20306;-81
2023/08/05 16:36:45;;;;;;;2.83;2.72;;;;;;;;;;6049654;29;20246;-82
2023/08/05 16:39:49;;;;;;;2.80;2.60;;;;;;;;;;6048317;29;20318;-80
2023/08/05 16:42:53;;;;;;;2.70;2.50;;;;;;;;;;6047323;29;20290;-79
2023/08/05 16:45:57;;;;;;;3.40;3.05;;;;;;;;;;6047768;29;20297;-79
2023/08/05 16:49:01;;;;;;;7.95;2.75;;;;;;;;;;6048211;29;20293;-78
2023/08/05 16:52:07;;;;;;;2.65;2.45;;;;;;;;;;6048368;29;20309;-80
2023/08/05 16:55:10;;;;;;;4.03;2.40;;;;;;;;;;6048511;29;20582;-81
2023/08/05 16:58:14;;;;;;;3.28;2.65;;;;;;;;;;6048132;29;20601;-80
2023/08/05 17:01:20;;;;;;;3.92;2.20;;;;;;;;;;6048715;29;20298;-81
2023/08/05 17:04:24;;;;;;;3.50;2.20;;;;;;;;;;6047816;29;20309;-81
2023/08/05 17:07:29;;;;;;;2.30;2.17;;;;;;;;;;6050592;29;20321;-80
2023/08/05 17:10:33;;;;;;;4.10;2.75;;;;;;;;;;6061275;29;20477;-82
2023/08/05 17:13:36;;;;;;;7.28;3.00;;;;;;;;;;6071748;29;20309;-82
2023/08/05 17:16:40;;;;;;;6.28;2.83;;;;;;;;;;6072059;29;20293;-79
2023/08/05 17:19:44;;;;;;;3.70;3.40;;;;;;;;;;6071678;29;20313;-79
2023/08/05 17:22:49;;;;;;;7.10;2.92;;;;;;;;;;6072466;29;20292;-79
2023/08/05 17:25:53;;;;;;;4.82;2.60;;;;;;;;;;6073238;29;20320;-79
2023/08/05 17:28:57;;;;;;;4.75;3.28;;;;;;;;;;6071154;29;20626;-78
2023/08/05 17:32:01;;;;;;;4.38;3.00;;;;;;;;;;6071518;29;20387;-77
2023/08/05 17:35:05;;;;;;;3.13;2.83;;;;;;;;;;6070783;29;20329;-78
2023/08/05 17:38:10;;;;;;;5.72;2.85;;;;;;;;;;6072142;29;20572;-79
2023/08/05 17:41:14;;;;;;;4.28;2.53;;;;;;;;;;6070763;29;20525;-78
2023/08/05 17:44:18;;;;;;;5.82;3.00;;;;;;;;;;6070097;29;20306;-80
2023/08/05 17:47:22;;;;;;;8.73;3.33;;;;;;;;;;6070745;29;20469;-80
2023/08/05 17:50:26;;;;;;;3.25;2.63;;;;;;;;;;6061851;29;20309;-77
2023/08/05 17:53:35;;;;;;;7.68;2.80;;;;;;;;;;6070338;29;20301;-78
2023/08/05 17:56:39;;;;;;;2.80;2.60;;;;;;;;;;6070605;29;20297;-79
2023/08/05 17:59:43;;;;;;;5.28;2.83;;;;;;;;;;6070058;29;20302;-77
2023/08/05 18:02:47;;;;;;;7.07;3.60;;;;;;;;;;6070066;29;20297;-80
2023/08/05 18:05:51;;;;;;;6.28;3.63;;;;;;;;;;6070880;29;20313;-82
2023/08/05 18:09:08;;;;;;;4.95;3.30;;;;;;;;;;6070164;29;20297;-80
2023/08/05 18:12:12;;;;;;;11.48;3.70;;;;;;;;;;6048479;29;20310;-80
2023/08/05 18:15:16;;;;;;;6.00;3.35;;;;;;;;;;6046703;29;20321;-80
2023/08/05 18:18:20;;;;;;;5.20;2.95;;;;;;;;;;6046974;29;20468;-80
2023/08/05 18:21:24;;;;;;;3.33;3.13;;;;;;;;;;6047370;29;20301;-79
2023/08/05 18:24:29;;;;;;;8.32;2.95;;;;;;;;;;6045994;29;20477;-78
2023/08/05 18:27:33;;;;;;;4.95;3.08;;;;;;;;;;6046082;29;20239;-78